Independence of the Seas — C6WW4 — position and weather

sailwx.info

Track history (hours):
 
Tides and Currents Weather Stations Pressure Air Temp Water Temp Dewpoint Dewpoint Depression Visibility Wind Speed Wind Dir Waves Ship Positions

Independence of the Seas

Last reported at 2014-Sep-21 06:00 UTC. Time now 2014-Sep-22 08:09 UTC.
Position N 48°30' W 006°06'.

Length 339 m; draft 8.8 m.

Type: Passenger vessel. MMSI: 309374000.

Wind from 010 at 10 knots

Waves 1.5 meters (5 feet), 11 second period

Barometer 1019.0 mb
Air temperature 17.0 ° C
Visibility: greater than 5.4 NM
Dewpoint 17.0 ° C
Water temperature 18.0 ° C

Date/timePositionNaut miles runAvg speedWind from/ knotsBaromVisibWave heightAir tempDewpointWater temp
2014-Sep-21 06:00N 48°30' W 006°06'20120.3 010 / 101019.0 5.4 1.517.017.018.0
2014-Sep-20 20:04N 50°18' W 001°46'1618.3
2014-Sep-20 19:13N 50°25' W 001°24'1217.5
2014-Sep-20 18:32N 50°31' W 001°07'1313.0
2014-Sep-20 17:33N 50°42' W 000°59'1313.2
2014-Sep-20 16:34N 50°48' W 001°17'7 7.1
2014-Sep-20 15:34N 50°54' W 001°25'0 0.2
2014-Sep-20 14:33N 50°54' W 001°25'0 0.0
2014-Sep-20 13:33N 50°54' W 001°25'0 0.0
2014-Sep-20 12:24N 50°54' W 001°25'0 0.0
2014-Sep-20 11:33N 50°54' W 001°25'0 0.0
2014-Sep-20 10:33N 50°54' W 001°25'0 0.0
2014-Sep-20 09:30N 50°54' W 001°25'0 0.0
2014-Sep-20 08:33N 50°54' W 001°25'0 0.0
2014-Sep-20 07:33N 50°54' W 001°25'0 0.0
2014-Sep-20 06:30N 50°54' W 001°25'0 0.0
2014-Sep-20 05:33N 50°54' W 001°25'0 0.0
2014-Sep-20 04:32N 50°54' W 001°25'5 5.0
2014-Sep-20 03:32N 50°50' W 001°19'10 9.7
2014-Sep-20 02:33N 50°45' W 001°07'1211.6
2014-Sep-20 01:33N 50°34' W 001°01'1614.5
2014-Sep-20 00:27N 50°25' W 001°21'22650.5
2014-Sep-19 20:00N 46°48' W 002°54'16464.6 090 / 101010.0 0.5 1.018.0 16.0
2014-Sep-19 17:27N 49°27' W 003°56'19617.1
2014-Sep-19 06:00N 46°54' W 007°00'50813.5 110 / 291005.027.0 4.019.017.519.0
2014-Sep-17 16:29N 38°37' W 009°23'1111.4
2014-Sep-17 15:33N 38°42' W 009°11'0 0.1
2014-Sep-17 14:31N 38°42' W 009°10'0 0.0
2014-Sep-17 13:31N 38°42' W 009°10'0 0.0
2014-Sep-17 12:31N 38°42' W 009°10'0 0.0
2014-Sep-17 11:31N 38°42' W 009°10'0 0.0
2014-Sep-17 10:31N 38°42' W 009°10'0 0.0
2014-Sep-17 09:31N 38°42' W 009°10'0 0.0
2014-Sep-17 08:31N 38°42' W 009°10'0 0.0
2014-Sep-17 07:31N 38°42' W 009°10'5 4.8
2014-Sep-17 06:34N 38°41' W 009°16'2214.6
2014-Sep-17 05:05N 38°21' W 009°24'1615.7
2014-Sep-17 04:05N 38°05' W 009°24'915.4
2014-Sep-17 03:30N 37°56' W 009°23'1515.4
2014-Sep-17 02:33N 37°41' W 009°22'405 8.8
2014-Sep-15 04:28N 37°31' W 000°52'1213.0
2014-Sep-15 03:33N 37°33' W 000°37'1312.9
2014-Sep-15 02:33N 37°41' W 000°25'6613.0
2014-Sep-14 21:27N 38°33' E 000°28'2311.9
2014-Sep-14 19:33N 38°55' E 000°24'1313.4
2014-Sep-14 18:33N 39°04' E 000°12'3112.7
2014-Sep-14 16:05N 39°26' W 000°18'1 0.1
2014-Sep-14 05:33N 39°27' W 000°18'9912.2
2014-Sep-13 21:28N 39°24' E 001°50'1313.1
2014-Sep-13 20:29N 39°24' E 002°07'1212.5
2014-Sep-13 19:33N 39°24' E 002°22'1211.7
2014-Sep-13 18:33N 39°29' E 002°36'5 4.7
2014-Sep-13 17:31N 39°33' E 002°38'0 0.0
2014-Sep-13 15:31N 39°33' E 002°38'0 0.0
2014-Sep-13 14:31N 39°33' E 002°38'0 0.0
2014-Sep-13 13:29N 39°33' E 002°38'0 0.0
2014-Sep-13 12:26N 39°33' E 002°38'0 0.0
2014-Sep-13 11:31N 39°33' E 002°38'0 0.0
2014-Sep-13 10:31N 39°33' E 002°38'0 0.0
2014-Sep-13 09:28N 39°33' E 002°38'0 0.0
2014-Sep-13 08:31N 39°33' E 002°38'0 0.0
2014-Sep-13 07:31N 39°33' E 002°38'0 0.0
2014-Sep-13 06:31N 39°33' E 002°38'0 0.0
2014-Sep-13 05:33N 39°33' E 002°38'7 6.8
2014-Sep-13 04:33N 39°27' E 002°34'1110.6
2014-Sep-13 03:33N 39°30' E 002°21'1611.1
2014-Sep-13 02:06N 39°45' E 002°16'712.5
2014-Sep-13 01:33N 39°52' E 002°15'1212.4
2014-Sep-13 00:33N 40°05' E 002°14'1313.1
2014-Sep-12 23:33N 40°18' E 002°13'1212.5
2014-Sep-12 22:33N 40°30' E 002°11'1312.9
2014-Sep-12 21:33N 40°43' E 002°10'1413.8
2014-Sep-12 20:34N 40°57' E 002°10'1413.6
2014-Sep-12 19:33N 41°10' E 002°10'19 1.3
2014-Sep-12 05:07N 41°21' E 002°30'2918.9
2014-Sep-12 03:33N 41°35' E 003°05'1918.6
2014-Sep-12 02:33N 41°44' E 003°26'8019.0
2014-Sep-11 22:20N 42°23' E 005°00'1718.7
2014-Sep-11 21:25N 42°31' E 005°21'1617.8
2014-Sep-11 20:30N 42°39' E 005°40'1718.0
2014-Sep-11 19:33N 42°47' E 006°01'1818.2
2014-Sep-11 18:33N 42°56' E 006°22'2218.7
2014-Sep-11 17:21N 43°11' E 006°45'1518.8
2014-Sep-11 16:33N 43°23' E 006°57'9 8.6
2014-Sep-11 15:30N 43°32' E 007°01'0 0.2
2014-Sep-11 14:30N 43°32' E 007°01'0 0.0
2014-Sep-11 13:24N 43°32' E 007°01'0 0.0
2014-Sep-11 12:30N 43°32' E 007°01'0 0.0
2014-Sep-11 11:24N 43°32' E 007°01'0 0.0
2014-Sep-11 10:24N 43°32' E 007°01'0 0.0
2014-Sep-11 09:30N 43°32' E 007°01'0 0.0
2014-Sep-11 08:30N 43°32' E 007°01'0 0.0
2014-Sep-11 07:30N 43°32' E 007°01'0 0.0
2014-Sep-11 06:33N 43°32' E 007°01'  
Track history (hours):
 
Tides and Currents Weather Stations Pressure Air Temp Water Temp Dewpoint Dewpoint Depression Visibility Wind Speed Wind Dir Waves Ship Positions

Independence of the Seas

Last reported at 2014-Sep-21 06:00 UTC. Time now 2014-Sep-22 08:09 UTC.
Position N 48°30' W 006°06'.

Length 339 m; draft 8.8 m.

Type: Passenger vessel. MMSI: 309374000.

Wind from 010 at 10 knots

Waves 1.5 meters (5 feet), 11 second period

Barometer 1019.0 mb
Air temperature 17.0 ° C
Visibility: greater than 5.4 NM
Dewpoint 17.0 ° C
Water temperature 18.0 ° C

Date/timePositionNaut miles runAvg speedWind from/ knotsBaromVisibWave heightAir tempDewpointWater temp
2014-Sep-21 06:00N 48°30' W 006°06'20120.3 010 / 101019.0 5.4 1.517.017.018.0
2014-Sep-20 20:04N 50°18' W 001°46'1618.3
2014-Sep-20 19:13N 50°25' W 001°24'1217.5
2014-Sep-20 18:32N 50°31' W 001°07'1313.0
2014-Sep-20 17:33N 50°42' W 000°59'1313.2
2014-Sep-20 16:34N 50°48' W 001°17'7 7.1
2014-Sep-20 15:34N 50°54' W 001°25'0 0.2
2014-Sep-20 14:33N 50°54' W 001°25'0 0.0
2014-Sep-20 13:33N 50°54' W 001°25'0 0.0
2014-Sep-20 12:24N 50°54' W 001°25'0 0.0
2014-Sep-20 11:33N 50°54' W 001°25'0 0.0
2014-Sep-20 10:33N 50°54' W 001°25'0 0.0
2014-Sep-20 09:30N 50°54' W 001°25'0 0.0
2014-Sep-20 08:33N 50°54' W 001°25'0 0.0
2014-Sep-20 07:33N 50°54' W 001°25'0 0.0
2014-Sep-20 06:30N 50°54' W 001°25'0 0.0
2014-Sep-20 05:33N 50°54' W 001°25'0 0.0
2014-Sep-20 04:32N 50°54' W 001°25'5 5.0
2014-Sep-20 03:32N 50°50' W 001°19'10 9.7
2014-Sep-20 02:33N 50°45' W 001°07'1211.6
2014-Sep-20 01:33N 50°34' W 001°01'1614.5
2014-Sep-20 00:27N 50°25' W 001°21'22650.5
2014-Sep-19 20:00N 46°48' W 002°54'16464.6 090 / 101010.0 0.5 1.018.0 16.0
2014-Sep-19 17:27N 49°27' W 003°56'19617.1
2014-Sep-19 06:00N 46°54' W 007°00'50813.5 110 / 291005.027.0 4.019.017.519.0
2014-Sep-17 16:29N 38°37' W 009°23'1111.4
2014-Sep-17 15:33N 38°42' W 009°11'0 0.1
2014-Sep-17 14:31N 38°42' W 009°10'0 0.0
2014-Sep-17 13:31N 38°42' W 009°10'0 0.0
2014-Sep-17 12:31N 38°42' W 009°10'0 0.0
2014-Sep-17 11:31N 38°42' W 009°10'0 0.0
2014-Sep-17 10:31N 38°42' W 009°10'0 0.0
2014-Sep-17 09:31N 38°42' W 009°10'0 0.0
2014-Sep-17 08:31N 38°42' W 009°10'0 0.0
2014-Sep-17 07:31N 38°42' W 009°10'5 4.8
2014-Sep-17 06:34N 38°41' W 009°16'2214.6
2014-Sep-17 05:05N 38°21' W 009°24'1615.7
2014-Sep-17 04:05N 38°05' W 009°24'915.4
2014-Sep-17 03:30N 37°56' W 009°23'1515.4
2014-Sep-17 02:33N 37°41' W 009°22'405 8.8
2014-Sep-15 04:28N 37°31' W 000°52'1213.0
2014-Sep-15 03:33N 37°33' W 000°37'1312.9
2014-Sep-15 02:33N 37°41' W 000°25'6613.0
2014-Sep-14 21:27N 38°33' E 000°28'2311.9
2014-Sep-14 19:33N 38°55' E 000°24'1313.4
2014-Sep-14 18:33N 39°04' E 000°12'3112.7
2014-Sep-14 16:05N 39°26' W 000°18'1 0.1
2014-Sep-14 05:33N 39°27' W 000°18'9912.2
2014-Sep-13 21:28N 39°24' E 001°50'1313.1
2014-Sep-13 20:29N 39°24' E 002°07'1212.5
2014-Sep-13 19:33N 39°24' E 002°22'1211.7
2014-Sep-13 18:33N 39°29' E 002°36'5 4.7
2014-Sep-13 17:31N 39°33' E 002°38'0 0.0
2014-Sep-13 15:31N 39°33' E 002°38'0 0.0
2014-Sep-13 14:31N 39°33' E 002°38'0 0.0
2014-Sep-13 13:29N 39°33' E 002°38'0 0.0
2014-Sep-13 12:26N 39°33' E 002°38'0 0.0
2014-Sep-13 11:31N 39°33' E 002°38'0 0.0
2014-Sep-13 10:31N 39°33' E 002°38'0 0.0
2014-Sep-13 09:28N 39°33' E 002°38'0 0.0
2014-Sep-13 08:31N 39°33' E 002°38'0 0.0
2014-Sep-13 07:31N 39°33' E 002°38'0 0.0
2014-Sep-13 06:31N 39°33' E 002°38'0 0.0
2014-Sep-13 05:33N 39°33' E 002°38'7 6.8
2014-Sep-13 04:33N 39°27' E 002°34'1110.6
2014-Sep-13 03:33N 39°30' E 002°21'1611.1
2014-Sep-13 02:06N 39°45' E 002°16'712.5
2014-Sep-13 01:33N 39°52' E 002°15'1212.4
2014-Sep-13 00:33N 40°05' E 002°14'1313.1
2014-Sep-12 23:33N 40°18' E 002°13'1212.5
2014-Sep-12 22:33N 40°30' E 002°11'1312.9
2014-Sep-12 21:33N 40°43' E 002°10'1413.8
2014-Sep-12 20:34N 40°57' E 002°10'1413.6
2014-Sep-12 19:33N 41°10' E 002°10'19 1.3
2014-Sep-12 05:07N 41°21' E 002°30'2918.9
2014-Sep-12 03:33N 41°35' E 003°05'1918.6
2014-Sep-12 02:33N 41°44' E 003°26'8019.0
2014-Sep-11 22:20N 42°23' E 005°00'1718.7
2014-Sep-11 21:25N 42°31' E 005°21'1617.8
2014-Sep-11 20:30N 42°39' E 005°40'1718.0
2014-Sep-11 19:33N 42°47' E 006°01'1818.2
2014-Sep-11 18:33N 42°56' E 006°22'2218.7
2014-Sep-11 17:21N 43°11' E 006°45'1518.8
2014-Sep-11 16:33N 43°23' E 006°57'9 8.6
2014-Sep-11 15:30N 43°32' E 007°01'0 0.2
2014-Sep-11 14:30N 43°32' E 007°01'0 0.0
2014-Sep-11 13:24N 43°32' E 007°01'0 0.0
2014-Sep-11 12:30N 43°32' E 007°01'0 0.0
2014-Sep-11 11:24N 43°32' E 007°01'0 0.0
2014-Sep-11 10:24N 43°32' E 007°01'0 0.0
2014-Sep-11 09:30N 43°32' E 007°01'0 0.0
2014-Sep-11 08:30N 43°32' E 007°01'0 0.0
2014-Sep-11 07:30N 43°32' E 007°01'0 0.0
2014-Sep-11 06:33N 43°32' E 007°01'  

Dump ship's entire track history